Time;durP1;ratioP1;P1;durP2;ratioP2;P2;SDS_P1;SDS_P2;PMS_P1;PMS_P2;Temp;Humidity;BMP_temperature;BMP_pressure;BME280_temperature;BME280_humidity;BME280_pressure;Samples;Min_cycle;Max_cycle;Signal;HPM_P1;HPM_P2
2023/04/26 00:01:04;;;;;;;5.00;1.50;;;5.40;99.90;;;;;;4207542;28;20564;-77
2023/04/26 00:03:06;;;;;;;6.27;2.30;;;5.40;99.90;;;;;;4212936;28;20843;-77
2023/04/26 00:05:08;;;;;;;3.90;1.80;;;5.40;99.90;;;;;;4211943;28;20448;-76
2023/04/26 00:07:12;;;;;;;3.30;2.00;;;5.30;99.90;;;;;;4209822;28;20471;-77
2023/04/26 00:09:14;;;;;;;2.20;1.60;;;5.30;99.90;;;;;;4212839;28;20464;-77
2023/04/26 00:11:16;;;;;;;3.43;1.40;;;5.30;99.90;;;;;;4205177;28;21033;-77
2023/04/26 00:13:18;;;;;;;4.67;1.53;;;5.30;99.90;;;;;;4214257;28;20463;-77
2023/04/26 00:15:21;;;;;;;3.57;1.43;;;5.20;99.90;;;;;;4212102;28;20467;-78
2023/04/26 00:17:23;;;;;;;2.80;1.77;;;5.20;99.90;;;;;;4211239;28;20479;-77
2023/04/26 00:19:26;;;;;;;3.43;1.50;;;5.20;99.90;;;;;;4208183;28;20844;-77
2023/04/26 00:21:28;;;;;;;1.70;1.43;;;5.20;99.90;;;;;;4214450;28;20546;-77
2023/04/26 00:23:30;;;;;;;4.27;1.70;;;5.20;99.90;;;;;;4207702;28;20506;-78
2023/04/26 00:25:32;;;;;;;5.90;2.60;;;5.10;99.90;;;;;;4211612;28;20500;-77
2023/04/26 00:27:34;;;;;;;4.17;1.80;;;5.10;99.90;;;;;;4211885;28;20545;-77
2023/04/26 00:29:36;;;;;;;2.10;1.30;;;5.10;99.90;;;;;;4212332;28;20456;-78
2023/04/26 00:31:40;;;;;;;3.00;1.67;;;5.00;99.90;;;;;;4211252;28;20480;-78
2023/04/26 00:33:41;;;;;;;6.20;1.53;;;5.00;99.90;;;;;;4211252;28;20474;-77
2023/04/26 00:35:44;;;;;;;4.57;1.50;;;5.00;99.90;;;;;;4210675;28;20462;-78
2023/04/26 00:37:46;;;;;;;3.03;1.60;;;5.00;99.90;;;;;;4208244;28;20475;-77
2023/04/26 00:39:48;;;;;;;4.17;1.70;;;5.00;99.90;;;;;;4211945;28;20464;-77
2023/04/26 00:41:50;;;;;;;4.90;1.67;;;5.00;99.90;;;;;;4209497;28;20476;-77
2023/04/26 00:43:52;;;;;;;3.03;1.77;;;5.00;99.90;;;;;;4211675;28;20460;-77
2023/04/26 00:45:54;;;;;;;4.13;1.60;;;5.00;99.90;;;;;;4214097;28;20522;-77
2023/04/26 00:47:58;;;;;;;6.77;1.90;;;5.00;99.90;;;;;;4212187;28;20460;-77
2023/04/26 00:50:00;;;;;;;2.77;1.73;;;5.00;99.90;;;;;;4210521;28;21228;-77
2023/04/26 00:52:02;;;;;;;2.73;1.67;;;4.90;99.90;;;;;;4211756;28;20482;-78
2023/04/26 00:54:05;;;;;;;3.00;1.73;;;4.90;99.90;;;;;;4208016;28;20907;-77
2023/04/26 00:56:09;;;;;;;2.30;1.50;;;4.90;99.90;;;;;;4209500;28;20466;-77
2023/04/26 00:58:11;;;;;;;2.80;1.60;;;4.90;99.90;;;;;;4206952;28;20539;-77
2023/04/26 01:00:14;;;;;;;3.50;1.70;;;4.90;99.90;;;;;;4212072;28;20481;-78
2023/04/26 01:02:17;;;;;;;3.33;1.73;;;4.90;99.90;;;;;;4211058;28;20939;-78
2023/04/26 01:04:25;;;;;;;2.90;1.50;;;4.80;99.90;;;;;;4209948;28;20559;-77
2023/04/26 01:06:32;;;;;;;3.50;1.60;;;4.80;99.90;;;;;;4209234;28;20825;-77
2023/04/26 01:08:34;;;;;;;4.57;1.50;;;4.80;99.90;;;;;;4209872;28;20458;-78
2023/04/26 01:10:36;;;;;;;2.00;1.47;;;4.80;99.90;;;;;;4211514;28;20511;-77
2023/04/26 01:12:39;;;;;;;7.23;1.90;;;4.80;99.90;;;;;;4211797;28;20546;-77
2023/04/26 01:14:41;;;;;;;6.47;2.20;;;4.80;99.90;;;;;;4211462;28;20463;-77
2023/04/26 01:16:46;;;;;;;6.27;1.43;;;4.80;99.90;;;;;;4206193;28;20540;-77
2023/04/26 01:18:51;;;;;;;3.47;1.50;;;4.70;99.90;;;;;;4213441;28;20825;-78
2023/04/26 01:20:56;;;;;;;8.90;1.97;;;4.70;99.90;;;;;;4208830;28;20562;-77
2023/04/26 01:23:00;;;;;;;3.83;1.80;;;4.70;99.90;;;;;;4211191;28;20473;-77
2023/04/26 01:25:06;;;;;;;3.13;1.63;;;4.60;99.90;;;;;;4208616;28;20455;-77
2023/04/26 01:27:08;;;;;;;5.10;1.83;;;4.60;99.90;;;;;;4209598;28;20459;-78
2023/04/26 01:29:14;;;;;;;2.30;1.50;;;4.60;99.90;;;;;;4207812;28;20537;-78
2023/04/26 01:31:21;;;;;;;5.77;1.80;;;4.60;99.90;;;;;;4208760;28;20578;-77
2023/04/26 01:33:23;;;;;;;5.23;1.50;;;4.90;99.90;;;;;;4208377;28;21301;-78
2023/04/26 01:35:25;;;;;;;4.13;1.93;;;4.50;99.90;;;;;;4207370;28;20468;-78
2023/04/26 01:37:27;;;;;;;2.83;1.50;;;4.50;99.90;;;;;;4210213;28;20590;-78
2023/04/26 01:39:31;;;;;;;4.53;1.80;;;4.50;99.90;;;;;;4207335;28;20463;-77
2023/04/26 01:41:33;;;;;;;3.97;1.90;;;4.50;99.90;;;;;;4209407;28;20483;-78
2023/04/26 01:43:34;;;;;;;5.43;1.60;;;4.50;99.90;;;;;;4210146;28;21003;-79
2023/04/26 01:45:36;;;;;;;3.97;1.50;;;4.50;99.90;;;;;;4210327;28;20554;-78
2023/04/26 01:47:38;;;;;;;4.27;1.80;;;4.50;99.90;;;;;;4205601;28;20481;-78
2023/04/26 01:49:41;;;;;;;5.20;1.90;;;4.40;99.90;;;;;;4203833;28;20470;-77
2023/04/26 01:51:43;;;;;;;3.13;1.50;;;4.40;99.90;;;;;;4206402;28;20481;-78
2023/04/26 01:53:45;;;;;;;4.13;1.40;;;4.40;99.90;;;;;;4209620;28;20467;-77
2023/04/26 01:55:48;;;;;;;5.60;2.17;;;4.40;99.90;;;;;;4206426;28;21054;-77
2023/04/26 01:57:50;;;;;;;5.50;1.90;;;4.30;99.90;;;;;;4208543;28;20577;-77
2023/04/26 01:59:54;;;;;;;7.20;2.27;;;4.30;99.90;;;;;;4203902;28;20458;-77
2023/04/26 02:01:56;;;;;;;3.97;1.90;;;4.20;99.90;;;;;;4210270;28;20868;-77
2023/04/26 02:03:58;;;;;;;7.77;2.10;;;4.20;99.90;;;;;;4208667;28;20529;-77
2023/04/26 02:06:00;;;;;;;6.20;2.37;;;4.20;99.90;;;;;;4206092;28;20566;-77
2023/04/26 02:08:02;;;;;;;4.07;2.17;;;4.10;99.90;;;;;;4210723;28;20465;-77
2023/04/26 02:10:05;;;;;;;4.67;1.77;;;4.10;99.90;;;;;;4211145;28;20454;-77
2023/04/26 02:12:08;;;;;;;10.73;2.00;;;4.10;99.90;;;;;;4210589;28;20467;-77
2023/04/26 02:14:10;;;;;;;6.27;2.03;;;4.00;99.90;;;;;;4205874;28;21076;-77
2023/04/26 02:16:14;;;;;;;7.60;1.83;;;4.00;99.90;;;;;;4209452;28;20960;-77
2023/04/26 02:18:16;;;;;;;5.03;2.00;;;4.00;99.90;;;;;;4209687;28;20491;-77
2023/04/26 02:20:21;;;;;;;3.73;1.93;;;3.90;99.90;;;;;;4207658;28;20482;-77
2023/04/26 02:22:24;;;;;;;7.23;2.43;;;3.90;99.90;;;;;;4209249;28;20473;-77
2023/04/26 02:24:26;;;;;;;6.83;2.10;;;3.90;99.90;;;;;;4206703;28;20532;-78
2023/04/26 02:26:28;;;;;;;3.57;2.00;;;3.90;99.90;;;;;;4208208;28;20459;-77
2023/04/26 02:28:31;;;;;;;5.70;2.27;;;3.80;99.90;;;;;;4210779;28;20499;-78
2023/04/26 02:30:34;;;;;;;2.53;1.70;;;3.80;99.90;;;;;;4206977;28;20515;-77
2023/04/26 02:32:36;;;;;;;5.93;2.27;;;3.80;99.90;;;;;;4210530;28;20458;-78
2023/04/26 02:34:40;;;;;;;4.10;2.00;;;3.80;99.90;;;;;;4213371;28;20887;-78
2023/04/26 02:36:42;;;;;;;8.63;2.60;;;3.80;99.90;;;;;;4214038;28;20473;-78
2023/04/26 02:38:46;;;;;;;4.17;2.43;;;3.80;99.90;;;;;;4211579;28;20483;-77
2023/04/26 02:40:48;;;;;;;5.23;2.20;;;3.80;99.90;;;;;;4214375;28;21061;-77
2023/04/26 02:42:50;;;;;;;4.57;2.43;;;3.70;99.90;;;;;;4214161;28;20463;-77
2023/04/26 02:44:54;;;;;;;7.53;2.47;;;3.70;99.90;;;;;;4212564;28;20458;-78
2023/04/26 02:46:55;;;;;;;5.60;2.23;;;3.60;99.90;;;;;;4213687;28;21248;-77
2023/04/26 02:48:57;;;;;;;4.20;2.03;;;3.60;99.90;;;;;;4214372;28;20554;-77
2023/04/26 02:50:59;;;;;;;5.43;1.97;;;3.60;99.90;;;;;;4214307;28;20513;-77
2023/04/26 02:53:02;;;;;;;3.47;2.00;;;3.70;99.90;;;;;;4210938;28;20467;-77
2023/04/26 02:55:05;;;;;;;4.33;2.27;;;3.60;99.90;;;;;;4209008;28;20980;-76
2023/04/26 02:57:08;;;;;;;3.93;2.00;;;3.60;99.90;;;;;;4214162;28;20527;-78
2023/04/26 02:59:10;;;;;;;6.30;2.33;;;3.50;99.90;;;;;;4213715;28;20457;-77
2023/04/26 03:01:14;;;;;;;4.60;2.40;;;3.50;99.90;;;;;;4212437;28;20461;-77
2023/04/26 03:03:16;;;;;;;4.63;2.10;;;3.50;99.90;;;;;;4213346;28;21008;-77
2023/04/26 03:05:18;;;;;;;5.47;1.93;;;3.50;99.90;;;;;;4213970;28;20554;-77
2023/04/26 03:07:20;;;;;;;3.30;2.03;;;3.50;99.90;;;;;;4210252;28;20454;-77
2023/04/26 03:09:22;;;;;;;6.23;2.20;;;3.50;99.90;;;;;;4213510;28;20836;-77
2023/04/26 03:11:24;;;;;;;5.33;2.33;;;3.40;99.90;;;;;;4214512;28;20541;-77
2023/04/26 03:13:27;;;;;;;6.80;2.13;;;3.40;99.90;;;;;;4213822;28;20465;-76
2023/04/26 03:15:29;;;;;;;4.60;1.87;;;3.40;99.90;;;;;;4211682;28;20844;-77
2023/04/26 03:17:32;;;;;;;5.97;2.17;;;3.40;99.90;;;;;;4214450;28;20498;-78
2023/04/26 03:19:34;;;;;;;8.10;2.50;;;3.30;99.90;;;;;;4214315;28;20482;-77
2023/04/26 03:21:36;;;;;;;3.57;1.83;;;3.30;99.90;;;;;;4212931;28;20497;-79
2023/04/26 03:23:38;;;;;;;9.63;3.13;;;3.30;99.90;;;;;;4211278;28;20996;-76
2023/04/26 03:25:40;;;;;;;6.00;2.00;;;3.20;99.90;;;;;;4213270;28;20470;-76
2023/04/26 03:27:42;;;;;;;6.67;2.43;;;3.20;99.90;;;;;;4213685;28;20523;-76
2023/04/26 03:29:43;;;;;;;8.07;2.50;;;3.20;99.90;;;;;;4217862;28;20490;-76
2023/04/26 03:31:45;;;;;;;6.17;2.40;;;3.10;99.90;;;;;;4209464;28;20574;-76
2023/04/26 03:33:49;;;;;;;4.70;2.43;;;3.10;99.90;;;;;;4211170;28;20479;-76
2023/04/26 03:35:53;;;;;;;8.67;2.57;;;3.10;99.90;;;;;;4213695;28;20485;-76
2023/04/26 03:37:55;;;;;;;3.87;2.30;;;3.10;99.90;;;;;;4213087;28;20582;-77
2023/04/26 03:39:57;;;;;;;5.83;2.33;;;3.00;99.90;;;;;;4213450;28;20498;-76
2023/04/26 03:41:58;;;;;;;9.23;2.40;;;3.00;99.90;;;;;;4212938;28;20490;-76
2023/04/26 03:44:00;;;;;;;4.83;2.23;;;3.00;99.90;;;;;;4213287;28;20566;-76
2023/04/26 03:46:03;;;;;;;4.37;2.30;;;3.00;99.90;;;;;;4213438;28;20455;-76
2023/04/26 03:48:05;;;;;;;5.37;1.93;;;3.00;99.90;;;;;;4213162;28;20462;-76
2023/04/26 03:50:09;;;;;;;3.07;1.87;;;3.00;99.90;;;;;;4214964;28;20462;-75
2023/04/26 03:52:12;;;;;;;3.50;1.70;;;2.90;99.90;;;;;;4213530;28;20513;-74
2023/04/26 03:54:15;;;;;;;5.73;2.27;;;2.90;99.90;;;;;;4215386;28;20890;-75
2023/04/26 03:56:17;;;;;;;5.87;2.30;;;2.90;99.90;;;;;;4213585;28;20856;-76
2023/04/26 03:58:19;;;;;;;5.00;2.20;;;2.90;99.90;;;;;;4210999;28;20487;-76
2023/04/26 04:00:21;;;;;;;7.87;2.43;;;2.80;99.90;;;;;;4215165;28;20490;-75
2023/04/26 04:02:23;;;;;;;5.20;2.30;;;2.80;99.90;;;;;;4211138;28;20968;-74
2023/04/26 04:04:25;;;;;;;4.87;2.30;;;2.80;99.90;;;;;;4210794;28;20467;-76
2023/04/26 04:06:28;;;;;;;10.17;2.80;;;2.80;99.90;;;;;;4213970;28;20490;-75
2023/04/26 04:08:30;;;;;;;5.53;2.07;;;2.80;99.90;;;;;;4214689;28;20546;-75
2023/04/26 04:10:32;;;;;;;8.20;2.40;;;2.70;99.90;;;;;;4212946;28;20562;-75
2023/04/26 04:12:34;;;;;;;6.10;2.10;;;2.70;99.90;;;;;;4214771;28;20550;-75
2023/04/26 04:14:36;;;;;;;4.53;2.17;;;2.70;99.90;;;;;;4214729;28;20554;-75
2023/04/26 04:16:38;;;;;;;6.00;2.20;;;2.70;99.90;;;;;;4214708;28;20501;-75
2023/04/26 04:18:40;;;;;;;6.00;2.03;;;2.70;99.90;;;;;;4214469;28;20481;-76
2023/04/26 04:20:42;;;;;;;6.17;2.23;;;2.70;99.90;;;;;;4212362;28;20487;-77
2023/04/26 04:22:46;;;;;;;3.73;1.80;;;2.60;99.90;;;;;;4214491;28;20565;-75
2023/04/26 04:24:50;;;;;;;5.90;1.77;;;2.60;99.90;;;;;;4212661;28;20517;-75
2023/04/26 04:26:53;;;;;;;5.70;1.87;;;2.60;99.90;;;;;;4210217;28;20449;-75
2023/04/26 04:28:56;;;;;;;7.07;2.33;;;2.40;99.90;;;;;;4211091;28;20469;-75
2023/04/26 04:30:59;;;;;;;5.63;1.83;;;2.60;99.90;;;;;;4210045;28;20487;-75
2023/04/26 04:33:04;;;;;;;8.90;2.33;;;2.60;99.90;;;;;;4208627;28;20451;-76
2023/04/26 04:35:06;;;;;;;7.43;2.10;;;2.50;99.90;;;;;;4209446;28;20490;-75
2023/04/26 04:37:08;;;;;;;5.47;2.17;;;2.50;99.90;;;;;;4212961;28;20442;-76
2023/04/26 04:39:14;;;;;;;4.20;1.90;;;2.50;99.90;;;;;;4212724;28;20478;-75
2023/04/26 04:41:16;;;;;;;4.00;2.10;;;2.50;99.90;;;;;;4213171;28;20459;-77
2023/04/26 04:43:18;;;;;;;4.30;2.10;;;2.50;99.90;;;;;;4212841;28;20457;-76
2023/04/26 04:45:21;;;;;;;5.80;2.20;;;2.50;99.90;;;;;;4213650;28;20920;-76
2023/04/26 04:47:23;;;;;;;8.80;2.50;;;2.50;99.90;;;;;;4210891;28;20455;-76
2023/04/26 04:49:25;;;;;;;8.10;2.10;;;2.50;99.90;;;;;;4206920;28;20553;-76
2023/04/26 04:51:27;;;;;;;3.60;1.90;;;2.50;99.90;;;;;;4212949;28;20558;-77
2023/04/26 04:53:29;;;;;;;4.63;1.93;;;2.50;99.90;;;;;;4211058;28;20463;-76
2023/04/26 04:55:32;;;;;;;7.53;2.37;;;2.50;99.90;;;;;;4211195;28;20503;-77
2023/04/26 04:57:35;;;;;;;5.53;2.10;;;2.50;99.90;;;;;;4211886;28;20495;-76
2023/04/26 04:59:36;;;;;;;4.37;2.00;;;2.50;99.90;;;;;;4212457;28;20487;-77
2023/04/26 05:01:38;;;;;;;4.03;2.30;;;2.50;99.90;;;;;;4212422;28;20550;-75
2023/04/26 05:03:40;;;;;;;4.53;2.10;;;2.50;99.90;;;;;;4211935;28;20467;-77
2023/04/26 05:05:42;;;;;;;5.23;2.50;;;2.50;99.90;;;;;;4210570;28;20455;-76
2023/04/26 05:07:44;;;;;;;5.60;2.47;;;2.50;99.90;;;;;;4212104;28;20541;-76
2023/04/26 05:09:46;;;;;;;3.83;1.90;;;2.50;99.90;;;;;;4211681;28;20537;-75
2023/04/26 05:11:50;;;;;;;2.30;1.70;;;2.50;99.90;;;;;;4206013;28;20489;-76
2023/04/26 05:13:52;;;;;;;9.27;2.60;;;2.50;99.90;;;;;;4208666;28;20502;-77
2023/04/26 05:15:53;;;;;;;7.33;2.70;;;2.50;99.90;;;;;;4211703;28;20528;-78
2023/04/26 05:17:56;;;;;;;6.97;2.50;;;2.50;99.90;;;;;;4203603;28;20955;-77
2023/04/26 05:19:58;;;;;;;6.60;2.30;;;2.60;99.90;;;;;;4210759;28;20477;-77
2023/04/26 05:22:00;;;;;;;3.83;2.17;;;2.60;99.90;;;;;;4207923;28;20481;-76
2023/04/26 05:24:02;;;;;;;5.13;2.17;;;2.60;99.90;;;;;;4210333;28;20971;-78
2023/04/26 05:26:04;;;;;;;4.57;2.40;;;2.60;99.90;;;;;;4211051;28;20546;-76
2023/04/26 05:28:11;;;;;;;10.37;2.70;;;2.60;99.90;;;;;;4210696;28;21006;-75
2023/04/26 05:30:13;;;;;;;4.27;2.40;;;2.70;99.90;;;;;;4210108;28;21100;-75
2023/04/26 05:32:15;;;;;;;6.73;2.53;;;2.70;99.90;;;;;;4205388;28;20570;-72
2023/04/26 05:34:17;;;;;;;5.70;2.63;;;2.70;99.90;;;;;;4205998;28;20895;-74
2023/04/26 05:36:20;;;;;;;8.27;2.67;;;2.70;99.90;;;;;;4210965;28;20458;-74
2023/04/26 05:38:22;;;;;;;9.80;2.73;;;2.80;99.90;;;;;;4205938;28;20969;-75
2023/04/26 05:40:23;;;;;;;11.47;2.57;;;2.80;99.90;;;;;;4208252;28;20475;-77
2023/04/26 05:42:25;;;;;;;5.13;2.60;;;2.80;99.90;;;;;;4210347;28;20940;-75
2023/04/26 05:44:29;;;;;;;6.60;2.60;;;2.90;99.90;;;;;;4208581;28;20976;-79
2023/04/26 05:46:31;;;;;;;8.87;2.87;;;3.00;99.90;;;;;;4209702;28;20548;-74
2023/04/26 05:48:32;;;;;;;6.37;2.40;;;3.10;99.90;;;;;;4211751;28;20557;-75
2023/04/26 05:50:35;;;;;;;10.83;3.13;;;3.00;99.90;;;;;;4210216;28;20459;-74
2023/04/26 05:52:37;;;;;;;10.17;3.13;;;3.00;99.90;;;;;;4207371;28;20451;-76
2023/04/26 05:54:39;;;;;;;7.73;2.50;;;3.00;99.90;;;;;;4206664;28;20872;-74
2023/04/26 05:56:41;;;;;;;16.73;2.23;;;3.10;99.90;;;;;;4206650;28;20487;-75
2023/04/26 05:58:43;;;;;;;7.90;2.50;;;3.10;99.90;;;;;;4207715;28;20490;-74
2023/04/26 06:00:46;;;;;;;9.40;2.60;;;3.20;99.90;;;;;;4204342;28;20894;-75
2023/04/26 06:02:48;;;;;;;10.93;2.73;;;3.20;99.90;;;;;;4207915;28;20494;-76
2023/04/26 06:04:50;;;;;;;5.83;2.80;;;3.20;99.90;;;;;;4210401;28;20874;-77
2023/04/26 06:06:52;;;;;;;9.17;2.80;;;3.30;99.90;;;;;;4204040;28;20467;-76
2023/04/26 06:08:54;;;;;;;6.13;2.50;;;3.40;99.90;;;;;;4205717;28;20479;-76
2023/04/26 06:10:56;;;;;;;13.90;3.13;;;3.40;99.90;;;;;;4210967;28;21003;-76
2023/04/26 06:12:58;;;;;;;6.90;2.50;;;3.50;99.90;;;;;;4207434;28;20546;-76
2023/04/26 06:15:00;;;;;;;8.73;3.03;;;3.50;99.90;;;;;;4206945;28;20459;-76
2023/04/26 06:17:03;;;;;;;6.73;2.37;;;3.50;99.90;;;;;;4208376;28;20459;-76
2023/04/26 06:19:05;;;;;;;7.60;2.57;;;3.50;99.90;;;;;;4207413;28;20481;-77
2023/04/26 06:21:07;;;;;;;5.37;2.63;;;3.60;99.90;;;;;;4204772;28;20906;-76
2023/04/26 06:23:09;;;;;;;4.73;2.50;;;3.60;99.90;;;;;;4204964;28;20463;-77
2023/04/26 06:25:11;;;;;;;5.70;2.47;;;3.70;99.90;;;;;;4210685;28;20464;-76
2023/04/26 06:27:13;;;;;;;5.07;2.47;;;3.70;99.90;;;;;;4206965;28;20965;-75
2023/04/26 06:29:15;;;;;;;8.50;2.60;;;3.80;99.90;;;;;;4207431;28;20459;-76
2023/04/26 06:31:17;;;;;;;7.60;2.33;;;3.80;99.90;;;;;;4204831;28;20889;-76
2023/04/26 06:33:20;;;;;;;10.57;2.63;;;3.90;99.90;;;;;;4207158;28;21078;-74
2023/04/26 06:35:24;;;;;;;8.97;2.60;;;3.90;99.90;;;;;;4205873;28;20573;-74
2023/04/26 06:37:26;;;;;;;8.90;2.70;;;4.00;99.90;;;;;;4206554;28;20479;-76
2023/04/26 06:39:27;;;;;;;12.27;2.80;;;4.00;99.90;;;;;;4206943;28;20487;-76
2023/04/26 06:41:30;;;;;;;6.17;2.70;;;4.00;99.90;;;;;;4209786;28;20482;-76
2023/04/26 06:43:31;;;;;;;9.77;2.87;;;4.10;99.90;;;;;;4205917;28;21256;-76
2023/04/26 06:45:33;;;;;;;5.97;2.53;;;4.10;99.90;;;;;;4208163;28;20899;-77
2023/04/26 06:47:35;;;;;;;10.27;2.50;;;4.20;99.90;;;;;;4207788;28;20455;-77
2023/04/26 06:49:38;;;;;;;6.30;2.03;;;4.20;99.90;;;;;;4206784;28;20502;-75
2023/04/26 06:51:40;;;;;;;7.10;1.90;;;4.30;99.90;;;;;;4208637;28;20470;-74
2023/04/26 06:53:42;;;;;;;5.33;2.10;;;4.40;99.90;;;;;;4208415;28;20557;-76
2023/04/26 06:55:44;;;;;;;7.07;2.10;;;4.50;99.90;;;;;;4210198;28;20567;-76
2023/04/26 06:57:46;;;;;;;10.90;1.90;;;4.50;99.90;;;;;;4208226;28;20903;-73
2023/04/26 06:59:48;;;;;;;11.70;2.13;;;4.60;99.90;;;;;;4203926;28;20482;-77
2023/04/26 07:01:51;;;;;;;5.07;1.90;;;4.70;99.90;;;;;;4205630;28;20470;-75
2023/04/26 07:03:52;;;;;;;8.17;2.10;;;4.70;99.90;;;;;;4208166;28;20563;-76
2023/04/26 07:05:56;;;;;;;13.80;2.07;;;4.80;99.90;;;;;;4206020;28;20463;-77
2023/04/26 07:07:58;;;;;;;9.10;1.90;;;4.80;99.90;;;;;;4209150;28;20544;-76
2023/04/26 07:10:00;;;;;;;9.33;2.47;;;4.90;99.90;;;;;;4206042;28;20543;-77
2023/04/26 07:12:02;;;;;;;7.80;2.60;;;5.00;99.90;;;;;;4207904;28;20565;-76
2023/04/26 07:14:04;;;;;;;14.33;2.57;;;5.00;99.90;;;;;;4207606;28;20986;-76
2023/04/26 07:16:06;;;;;;;8.80;2.47;;;5.10;99.90;;;;;;4206400;28;20464;-76
2023/04/26 07:18:08;;;;;;;6.37;1.87;;;5.10;99.90;;;;;;4204702;28;20474;-74
2023/04/26 07:20:11;;;;;;;11.37;2.27;;;5.30;99.90;;;;;;4209741;28;20582;-77
2023/04/26 07:22:15;;;;;;;6.23;2.10;;;5.30;99.90;;;;;;4207570;28;20475;-74
2023/04/26 07:24:17;;;;;;;11.57;2.27;;;5.40;99.90;;;;;;4210671;28;20555;-76
2023/04/26 07:26:19;;;;;;;7.50;2.00;;;5.40;99.90;;;;;;4211086;28;20556;-75
2023/04/26 07:28:21;;;;;;;8.47;2.27;;;5.50;99.90;;;;;;4209154;28;20474;-77
2023/04/26 07:30:23;;;;;;;9.40;2.40;;;5.60;99.90;;;;;;4209622;28;20447;-77
2023/04/26 07:32:24;;;;;;;6.37;1.90;;;5.60;99.90;;;;;;4208875;28;20906;-76
2023/04/26 07:34:26;;;;;;;8.10;2.70;;;5.60;99.90;;;;;;4206811;28;21004;-76
2023/04/26 07:36:28;;;;;;;8.93;2.00;;;5.60;99.90;;;;;;4205670;28;20560;-77
2023/04/26 07:38:32;;;;;;;7.60;1.83;;;5.70;99.90;;;;;;4212810;28;20489;-74
2023/04/26 07:40:33;;;;;;;11.77;2.37;;;5.80;99.90;;;;;;4214426;28;20487;-73
2023/04/26 07:42:35;;;;;;;13.10;2.27;;;5.80;99.90;;;;;;4214450;28;20469;-73
2023/04/26 07:44:37;;;;;;;10.70;2.60;;;5.90;99.90;;;;;;4217243;28;20464;-73
2023/04/26 07:46:39;;;;;;;7.70;2.27;;;6.00;99.90;;;;;;4212558;28;20901;-74
2023/04/26 07:48:41;;;;;;;5.40;1.90;;;6.10;99.90;;;;;;4212559;28;20530;-73
2023/04/26 07:50:43;;;;;;;15.57;2.50;;;6.10;99.90;;;;;;4208848;28;20480;-73
2023/04/26 07:52:45;;;;;;;6.93;2.13;;;6.10;99.90;;;;;;4212770;28;20496;-73
2023/04/26 07:54:48;;;;;;;5.37;1.80;;;6.20;99.90;;;;;;4211891;28;20454;-73
2023/04/26 07:56:50;;;;;;;9.70;1.90;;;6.20;99.90;;;;;;4209827;28;20549;-73
2023/04/26 07:58:52;;;;;;;14.03;2.13;;;6.30;99.90;;;;;;4206585;28;20544;-73
2023/04/26 08:00:55;;;;;;;6.10;2.10;;;6.40;99.90;;;;;;4208864;28;20474;-74
2023/04/26 08:02:56;;;;;;;6.57;1.97;;;6.50;99.90;;;;;;4205701;28;20472;-75
2023/04/26 08:04:58;;;;;;;8.67;1.70;;;6.60;99.90;;;;;;4212908;28;20461;-74
2023/04/26 08:07:01;;;;;;;7.60;1.83;;;6.70;99.90;;;;;;4213033;28;20462;-75
2023/04/26 08:09:03;;;;;;;6.70;2.50;;;6.80;99.90;;;;;;4212629;28;20465;-74
2023/04/26 08:11:09;;;;;;;5.67;1.90;;;7.00;99.90;;;;;;4210002;28;20574;-76
2023/04/26 08:13:11;;;;;;;8.43;1.63;;;7.10;99.90;;;;;;4208801;28;20462;-74
2023/04/26 08:15:13;;;;;;;5.47;2.20;;;7.20;99.90;;;;;;4210579;28;20528;-78
2023/04/26 08:17:15;;;;;;;6.73;1.93;;;7.20;99.90;;;;;;4208088;28;20891;-72
2023/04/26 08:19:17;;;;;;;4.70;1.67;;;7.30;99.90;;;;;;4214481;28;20545;-73
2023/04/26 08:21:19;;;;;;;8.30;2.23;;;7.30;99.90;;;;;;4211138;28;20478;-74
2023/04/26 08:23:21;;;;;;;10.33;2.00;;;7.30;99.90;;;;;;4216691;28;20459;-73
2023/04/26 08:25:23;;;;;;;3.63;1.60;;;7.30;99.90;;;;;;4213317;28;20452;-74
2023/04/26 08:27:27;;;;;;;6.93;1.80;;;7.30;99.90;;;;;;4208198;28;20487;-75
2023/04/26 08:29:29;;;;;;;3.33;1.50;;;7.40;99.90;;;;;;4211549;28;20443;-75
2023/04/26 08:31:31;;;;;;;6.73;2.10;;;7.50;99.90;;;;;;4211082;28;20573;-74
2023/04/26 08:33:34;;;;;;;8.83;1.90;;;7.50;99.90;;;;;;4210010;28;20550;-74
2023/04/26 08:35:36;;;;;;;5.97;1.83;;;7.60;99.90;;;;;;4212090;28;20986;-74
2023/04/26 08:37:38;;;;;;;10.10;2.47;;;7.60;99.90;;;;;;4218904;28;20982;-74
2023/04/26 08:39:40;;;;;;;11.10;2.00;;;7.60;99.90;;;;;;4215210;28;20487;-74
2023/04/26 08:41:45;;;;;;;10.10;2.20;;;7.60;99.90;;;;;;4212712;28;20479;-75
2023/04/26 08:43:50;;;;;;;4.57;1.60;;;7.60;99.90;;;;;;4212199;28;20470;-73
2023/04/26 08:45:52;;;;;;;5.90;1.97;;;7.50;99.90;;;;;;4210521;28;21031;-74
2023/04/26 08:47:59;;;;;;;7.40;2.27;;;7.50;99.90;;;;;;4209095;28;20880;-73
2023/04/26 08:50:02;;;;;;;2.83;1.57;;;7.40;99.90;;;;;;4209099;28;20524;-75
2023/04/26 08:52:08;;;;;;;3.23;1.33;;;7.40;99.90;;;;;;4210421;28;20491;-75
2023/04/26 08:54:11;;;;;;;11.30;2.10;;;7.40;99.90;;;;;;4206712;28;20462;-75
2023/04/26 08:56:14;;;;;;;5.43;1.70;;;7.50;99.90;;;;;;4207845;28;20461;-74
2023/04/26 08:58:16;;;;;;;8.33;2.00;;;7.60;99.90;;;;;;4210675;28;20472;-74
2023/04/26 09:00:21;;;;;;;9.10;2.00;;;7.70;99.90;;;;;;4214661;28;20573;-74
2023/04/26 09:02:23;;;;;;;4.33;1.73;;;7.80;99.90;;;;;;4204253;28;20466;-74
2023/04/26 09:04:25;;;;;;;6.70;1.80;;;7.90;99.90;;;;;;4209730;28;21069;-74
2023/04/26 09:06:28;;;;;;;6.30;2.00;;;8.00;99.90;;;;;;4208533;28;20480;-75
2023/04/26 09:08:30;;;;;;;7.97;2.07;;;8.10;99.90;;;;;;4209930;28;20483;-74
2023/04/26 09:10:32;;;;;;;6.37;2.03;;;8.10;99.90;;;;;;4212784;28;20498;-74
2023/04/26 09:12:34;;;;;;;6.50;1.67;;;8.20;99.90;;;;;;4213530;28;20451;-74
2023/04/26 09:14:36;;;;;;;5.97;1.77;;;8.20;99.90;;;;;;4214856;28;20459;-74
2023/04/26 09:16:40;;;;;;;6.50;1.53;;;8.30;99.90;;;;;;4208209;28;20484;-74
2023/04/26 09:18:50;;;;;;;6.33;2.20;;;8.30;99.90;;;;;;4216372;28;20658;-74
2023/04/26 09:21:06;;;;;;;5.53;2.00;;;8.40;99.90;;;;;;4222267;28;21084;-73
2023/04/26 09:23:10;;;;;;;6.33;2.20;;;8.40;99.90;;;;;;4222126;28;20235;-74
2023/04/26 09:25:13;;;;;;;4.73;1.83;;;8.50;99.90;;;;;;4225150;28;20220;-74
2023/04/26 09:27:15;;;;;;;4.80;1.70;;;8.50;99.90;;;;;;4236679;28;20209;-75
2023/04/26 09:29:19;;;;;;;9.20;2.87;;;8.60;99.90;;;;;;4248163;28;20201;-73
2023/04/26 09:31:38;;;;;;;6.13;1.67;;;8.70;99.90;;;;;;4224968;28;20217;-74
2023/04/26 09:33:57;;;;;;;8.33;1.83;;;8.70;99.90;;;;;;4218735;28;20300;-74
2023/04/26 09:36:11;;;;;;;7.97;1.90;;;8.80;99.90;;;;;;4212362;28;20694;-74
2023/04/26 09:38:15;;;;;;;4.30;1.53;;;8.80;99.90;;;;;;4206198;28;20208;-74
2023/04/26 09:40:19;;;;;;;2.60;1.37;;;8.80;99.90;;;;;;4210199;28;20851;-74
2023/04/26 09:42:21;;;;;;;9.40;1.70;;;8.70;99.90;;;;;;4213254;28;20216;-74
2023/04/26 09:44:23;;;;;;;10.37;2.10;;;8.70;99.90;;;;;;4211054;28;20197;-75
2023/04/26 09:46:28;;;;;;;6.77;1.90;;;8.70;99.90;;;;;;4214222;28;20234;-74
2023/04/26 09:48:33;;;;;;;4.37;1.90;;;8.70;99.90;;;;;;4208646;28;20283;-79
2023/04/26 09:50:36;;;;;;;5.63;2.07;;;8.50;99.90;;;;;;4214848;28;20257;-79
2023/04/26 09:52:44;;;;;;;9.83;2.00;;;8.70;99.90;;;;;;4211825;28;20225;-80
2023/04/26 09:54:49;;;;;;;5.40;2.00;;;8.80;99.90;;;;;;4207657;28;20224;-82
2023/04/26 09:57:00;;;;;;;6.20;2.10;;;8.90;99.90;;;;;;4204465;28;20313;-76
2023/04/26 09:59:04;;;;;;;3.97;1.50;;;9.00;99.90;;;;;;4212523;28;20217;-76
2023/04/26 10:01:08;;;;;;;4.90;2.50;;;9.00;99.90;;;;;;4212418;28;20225;-75
2023/04/26 10:03:11;;;;;;;4.57;1.90;;;9.10;99.90;;;;;;4207966;28;20312;-75
2023/04/26 10:05:13;;;;;;;7.93;1.90;;;9.20;99.90;;;;;;4205904;28;20209;-76
2023/04/26 10:07:18;;;;;;;5.80;1.90;;;9.30;99.90;;;;;;4208128;28;20206;-76
2023/04/26 10:09:20;;;;;;;5.87;1.93;;;9.30;91.50;;;;;;4205156;28;20334;-75
2023/04/26 10:11:23;;;;;;;3.07;1.50;;;9.30;88.00;;;;;;4210796;28;20218;-78
2023/04/26 10:13:25;;;;;;;3.67;1.47;;;9.40;88.60;;;;;;4212165;28;20259;-75
2023/04/26 10:15:27;;;;;;;4.00;1.30;;;9.40;91.10;;;;;;4207210;28;20207;-73
2023/04/26 10:17:31;;;;;;;6.17;2.00;;;9.40;91.90;;;;;;4208865;28;20256;-74
2023/04/26 10:19:34;;;;;;;4.43;1.80;;;9.40;92.10;;;;;;4216057;28;20205;-74
2023/04/26 10:21:40;;;;;;;6.33;1.80;;;9.40;94.40;;;;;;4207514;28;20286;-75
2023/04/26 10:23:43;;;;;;;8.07;2.27;;;9.40;98.50;;;;;;4209272;28;20310;-75
2023/04/26 10:25:45;;;;;;;5.57;1.90;;;9.50;98.00;;;;;;4212880;28;20305;-75
2023/04/26 10:27:51;;;;;;;4.87;1.60;;;9.60;99.00;;;;;;4209436;28;20225;-74
2023/04/26 10:30:09;;;;;;;8.33;1.90;;;9.60;96.10;;;;;;4212460;28;20215;-74
2023/04/26 10:32:15;;;;;;;7.20;2.17;;;9.80;95.80;;;;;;4212415;28;20226;-75
2023/04/26 10:34:21;;;;;;;3.97;1.90;;;9.90;82.10;;;;;;4219560;28;20754;-73
2023/04/26 10:36:23;;;;;;;6.97;1.60;;;10.10;71.90;;;;;;4209678;28;20240;-74
2023/04/26 10:38:25;;;;;;;4.23;1.50;;;10.20;63.50;;;;;;4215845;28;20215;-74
2023/04/26 10:40:30;;;;;;;5.30;1.77;;;10.20;62.90;;;;;;4211281;28;20227;-74
2023/04/26 10:42:32;;;;;;;5.23;1.43;;;10.20;61.70;;;;;;4210802;28;20239;-75
2023/04/26 10:44:44;;;;;;;6.77;1.57;;;10.20;61.60;;;;;;4208645;28;20211;-75
2023/04/26 10:46:51;;;;;;;5.50;1.77;;;10.20;62.40;;;;;;4209242;28;20207;-74